Time,TemperatureF,DewpointF,PressureIn,WindDirection,WindDirectionDegrees,WindSpeedMPH,WindSpeedGustMPH,Humidity,HourlyPrecipIn,Conditions,Clouds,dailyrainin,SolarRadiationWatts/m^2,SoftwareType,DateUTC
2013-02-13 00:02:00,20.3,18.6,29.97,West,263,0.0,0.0,93,0.00,,,0.00,0,HR-IXP-WINDi_r2_v1.2,2013-02-13 06:02:00,
2013-02-13 00:08:00,20.2,18.5,29.97,West,263,0.0,0.0,93,0.00,,,0.00,0,HR-IXP-WINDi_r2_v1.2,2013-02-13 06:08:00,
2013-02-13 00:13:00,20.1,18.4,29.98,West,263,0.0,0.0,93,0.00,,,0.00,0,HR-IXP-WINDi_r2_v1.2,2013-02-13 06:13:00,
2013-02-13 00:18:00,20.1,18.4,29.97,West,263,0.0,0.0,93,0.00,,,0.00,0,HR-IXP-WINDi_r2_v1.2,2013-02-13 06:18:00,
2013-02-13 00:23:00,20.1,18.4,29.97,West,263,0.0,0.0,93,0.00,,,0.00,0,HR-IXP-WINDi_r2_v1.2,2013-02-13 06:23:00,
2013-02-13 00:28:00,20.0,18.6,29.97,West,263,0.0,0.0,94,0.00,,,0.00,0,HR-IXP-WINDi_r2_v1.2,2013-02-13 06:28:00,
2013-02-13 00:33:00,20.0,18.6,29.97,West,263,0.0,0.0,94,0.00,,,0.00,0,HR-IXP-WINDi_r2_v1.2,2013-02-13 06:33:00,
2013-02-13 00:39:00,19.9,18.2,29.97,West,263,0.0,0.0,93,0.00,,,0.00,0,HR-IXP-WINDi_r2_v1.2,2013-02-13 06:39:00,
2013-02-13 00:44:00,19.9,18.5,29.96,West,263,0.0,0.0,94,0.00,,,0.00,0,HR-IXP-WINDi_r2_v1.2,2013-02-13 06:44:00,
2013-02-13 00:49:00,19.8,18.4,29.96,West,263,0.0,0.0,94,0.00,,,0.00,0,HR-IXP-WINDi_r2_v1.2,2013-02-13 06:49:00,
2013-02-13 00:54:00,19.8,18.4,29.96,West,263,0.0,0.0,94,0.00,,,0.00,0,HR-IXP-WINDi_r2_v1.2,2013-02-13 06:54:00,
2013-02-13 00:59:00,19.8,18.4,29.95,West,263,0.0,0.0,94,0.00,,,0.00,0,HR-IXP-WINDi_r2_v1.2,2013-02-13 06:59:00,
2013-02-13 01:05:00,19.7,18.3,29.95,West,263,0.0,0.0,94,0.00,,,0.00,0,HR-IXP-WINDi_r2_v1.2,2013-02-13 07:05:00,
2013-02-13 01:10:00,19.7,18.3,29.95,West,263,0.0,0.0,94,0.00,,,0.00,0,HR-IXP-WINDi_r2_v1.2,2013-02-13 07:10:00,
2013-02-13 01:15:00,19.6,18.2,29.95,West,263,0.0,0.0,94,0.00,,,0.00,0,HR-IXP-WINDi_r2_v1.2,2013-02-13 07:15:00,
2013-02-13 01:20:00,19.5,18.1,29.95,West,263,0.0,0.0,94,0.00,,,0.00,0,HR-IXP-WINDi_r2_v1.2,2013-02-13 07:20:00,
2013-02-13 01:25:00,19.5,18.1,29.95,West,263,0.0,0.0,94,0.00,,,0.00,0,HR-IXP-WINDi_r2_v1.2,2013-02-13 07:25:00,
2013-02-13 01:31:00,19.5,18.1,29.95,West,263,0.0,0.0,94,0.00,,,0.00,0,HR-IXP-WINDi_r2_v1.2,2013-02-13 07:31:00,
2013-02-13 01:36:00,19.5,18.1,29.94,West,263,0.0,0.0,94,0.00,,,0.00,0,HR-IXP-WINDi_r2_v1.2,2013-02-13 07:36:00,
2013-02-13 01:41:00,19.4,18.0,29.95,West,263,0.0,0.0,94,0.00,,,0.00,0,HR-IXP-WINDi_r2_v1.2,2013-02-13 07:41:00,
2013-02-13 01:46:00,19.4,18.0,29.94,West,263,0.0,0.0,94,0.00,,,0.00,0,HR-IXP-WINDi_r2_v1.2,2013-02-13 07:46:00,
2013-02-13 01:51:00,19.3,17.9,29.94,West,263,0.0,0.0,94,0.00,,,0.00,0,HR-IXP-WINDi_r2_v1.2,2013-02-13 07:51:00,
2013-02-13 01:57:00,19.2,17.8,29.94,West,263,0.0,0.0,94,0.00,,,0.00,0,HR-IXP-WINDi_r2_v1.2,2013-02-13 07:57:00,
2013-02-13 02:02:00,19.3,17.9,29.94,West,263,0.0,0.0,94,0.00,,,0.00,0,HR-IXP-WINDi_r2_v1.2,2013-02-13 08:02:00,
2013-02-13 02:07:00,19.2,17.8,29.94,West,263,0.0,0.0,94,0.00,,,0.00,0,HR-IXP-WINDi_r2_v1.2,2013-02-13 08:07:00,
2013-02-13 02:12:00,19.3,17.9,29.94,West,263,0.0,0.0,94,0.00,,,0.00,0,HR-IXP-WINDi_r2_v1.2,2013-02-13 08:12:00,
2013-02-13 02:17:00,19.2,17.8,29.94,West,263,0.0,0.0,94,0.00,,,0.00,0,HR-IXP-WINDi_r2_v1.2,2013-02-13 08:17:00,
2013-02-13 02:23:00,19.2,17.8,29.94,West,263,0.0,0.0,94,0.00,,,0.00,0,HR-IXP-WINDi_r2_v1.2,2013-02-13 08:23:00,
2013-02-13 02:28:00,19.1,17.7,29.94,West,263,0.0,0.0,94,0.00,,,0.00,0,HR-IXP-WINDi_r2_v1.2,2013-02-13 08:28:00,
2013-02-13 02:33:00,19.2,17.8,29.93,West,263,0.0,0.0,94,0.00,,,0.00,0,HR-IXP-WINDi_r2_v1.2,2013-02-13 08:33:00,
2013-02-13 02:38:00,19.1,17.9,29.93,West,263,0.0,0.0,95,0.00,,,0.00,0,HR-IXP-WINDi_r2_v1.2,2013-02-13 08:38:00,
2013-02-13 02:43:00,19.1,17.9,29.93,West,263,0.0,0.0,95,0.00,,,0.00,0,HR-IXP-WINDi_r2_v1.2,2013-02-13 08:43:00,
2013-02-13 02:49:00,19.2,18.0,29.93,West,263,0.0,0.0,95,0.00,,,0.00,0,HR-IXP-WINDi_r2_v1.2,2013-02-13 08:49:00,
2013-02-13 02:54:00,19.2,18.0,29.93,West,263,0.0,0.0,95,0.00,,,0.00,0,HR-IXP-WINDi_r2_v1.2,2013-02-13 08:54:00,
2013-02-13 02:59:00,19.3,18.1,29.93,West,263,0.0,1.0,95,0.00,,,0.00,0,HR-IXP-WINDi_r2_v1.2,2013-02-13 08:59:00,
2013-02-13 03:04:00,19.4,18.2,29.93,West,263,0.0,1.0,95,0.00,,,0.00,0,HR-IXP-WINDi_r2_v1.2,2013-02-13 09:04:00,
2013-02-13 03:09:00,19.5,18.3,29.92,West,263,0.0,0.0,95,0.00,,,0.00,0,HR-IXP-WINDi_r2_v1.2,2013-02-13 09:09:00,
2013-02-13 03:15:00,19.6,18.4,29.92,West,263,0.0,0.0,95,0.00,,,0.00,0,HR-IXP-WINDi_r2_v1.2,2013-02-13 09:15:00,
2013-02-13 03:20:00,19.6,18.4,29.92,West,263,0.0,0.0,95,0.00,,,0.00,0,HR-IXP-WINDi_r2_v1.2,2013-02-13 09:20:00,
2013-02-13 03:25:00,19.7,18.5,29.92,West,263,0.0,0.0,95,0.00,,,0.00,0,HR-IXP-WINDi_r2_v1.2,2013-02-13 09:25:00,
2013-02-13 03:30:00,19.7,18.5,29.92,West,263,0.0,0.0,95,0.00,,,0.00,0,HR-IXP-WINDi_r2_v1.2,2013-02-13 09:30:00,
2013-02-13 03:35:00,19.7,18.5,29.91,West,263,0.0,0.0,95,0.00,,,0.00,0,HR-IXP-WINDi_r2_v1.2,2013-02-13 09:35:00,
2013-02-13 03:41:00,19.7,18.5,29.91,West,263,0.0,0.0,95,0.00,,,0.00,0,HR-IXP-WINDi_r2_v1.2,2013-02-13 09:41:00,
2013-02-13 03:46:00,19.5,18.3,29.91,West,263,0.0,0.0,95,0.00,,,0.00,0,HR-IXP-WINDi_r2_v1.2,2013-02-13 09:46:00,
2013-02-13 03:51:00,19.5,18.3,29.91,West,263,0.0,0.0,95,0.00,,,0.00,0,HR-IXP-WINDi_r2_v1.2,2013-02-13 09:51:00,
2013-02-13 03:56:00,19.5,18.3,29.91,West,263,0.0,0.0,95,0.00,,,0.00,0,HR-IXP-WINDi_r2_v1.2,2013-02-13 09:56:00,
2013-02-13 04:01:00,19.4,18.2,29.91,West,263,0.0,0.0,95,0.00,,,0.00,0,HR-IXP-WINDi_r2_v1.2,2013-02-13 10:01:00,
2013-02-13 04:07:00,19.3,18.1,29.91,West,263,0.0,0.0,95,0.00,,,0.00,0,HR-IXP-WINDi_r2_v1.2,2013-02-13 10:07:00,
2013-02-13 04:12:00,19.3,18.1,29.90,West,263,0.0,0.0,95,0.00,,,0.00,0,HR-IXP-WINDi_r2_v1.2,2013-02-13 10:12:00,
2013-02-13 04:17:00,19.1,17.9,29.90,West,263,0.0,0.0,95,0.00,,,0.00,0,HR-IXP-WINDi_r2_v1.2,2013-02-13 10:17:00,
2013-02-13 04:22:00,19.1,17.9,29.90,West,263,0.0,0.0,95,0.00,,,0.00,0,HR-IXP-WINDi_r2_v1.2,2013-02-13 10:22:00,
2013-02-13 04:27:00,19.0,17.8,29.90,West,263,0.0,0.0,95,0.00,,,0.00,0,HR-IXP-WINDi_r2_v1.2,2013-02-13 10:27:00,
2013-02-13 04:33:00,19.0,17.8,29.90,West,263,0.0,0.0,95,0.00,,,0.00,0,HR-IXP-WINDi_r2_v1.2,2013-02-13 10:33:00,
2013-02-13 04:38:00,18.9,17.7,29.90,West,263,0.0,0.0,95,0.00,,,0.00,0,HR-IXP-WINDi_r2_v1.2,2013-02-13 10:38:00,
2013-02-13 04:43:00,18.9,17.7,29.90,West,263,0.0,0.0,95,0.00,,,0.00,0,HR-IXP-WINDi_r2_v1.2,2013-02-13 10:43:00,
2013-02-13 04:48:00,18.8,17.6,29.89,West,263,0.0,0.0,95,0.00,,,0.00,0,HR-IXP-WINDi_r2_v1.2,2013-02-13 10:48:00,
2013-02-13 04:53:00,18.7,17.3,29.89,West,263,0.0,0.0,94,0.00,,,0.00,0,HR-IXP-WINDi_r2_v1.2,2013-02-13 10:53:00,
2013-02-13 04:58:00,18.7,17.3,29.89,West,263,0.0,0.0,94,0.00,,,0.00,0,HR-IXP-WINDi_r2_v1.2,2013-02-13 10:58:00,
2013-02-13 05:04:00,18.6,17.2,29.89,West,263,0.0,0.0,94,0.00,,,0.00,0,HR-IXP-WINDi_r2_v1.2,2013-02-13 11:04:00,
2013-02-13 05:09:00,18.5,17.3,29.88,West,263,0.0,0.0,95,0.00,,,0.00,0,HR-IXP-WINDi_r2_v1.2,2013-02-13 11:09:00,
2013-02-13 05:14:00,18.5,17.3,29.88,West,263,0.0,0.0,95,0.00,,,0.00,0,HR-IXP-WINDi_r2_v1.2,2013-02-13 11:14:00,
2013-02-13 05:19:00,18.5,17.1,29.88,West,263,0.0,0.0,94,0.00,,,0.00,0,HR-IXP-WINDi_r2_v1.2,2013-02-13 11:19:00,
2013-02-13 05:24:00,18.6,17.4,29.88,West,263,0.0,0.0,95,0.00,,,0.00,0,HR-IXP-WINDi_r2_v1.2,2013-02-13 11:24:00,
2013-02-13 05:29:00,18.7,17.5,29.88,West,263,0.0,0.0,95,0.00,,,0.00,0,HR-IXP-WINDi_r2_v1.2,2013-02-13 11:29:00,
2013-02-13 05:34:00,18.8,17.6,29.87,West,263,0.0,0.0,95,0.00,,,0.00,0,HR-IXP-WINDi_r2_v1.2,2013-02-13 11:34:00,
2013-02-13 05:40:00,18.9,17.7,29.87,West,263,0.0,0.0,95,0.00,,,0.00,0,HR-IXP-WINDi_r2_v1.2,2013-02-13 11:40:00,
2013-02-13 05:45:00,19.1,17.9,29.87,ESE,103,0.0,1.0,95,0.00,,,0.00,0,HR-IXP-WINDi_r2_v1.2,2013-02-13 11:45:00,
2013-02-13 05:50:00,19.1,17.9,29.87,ESE,103,0.0,1.0,95,0.00,,,0.00,0,HR-IXP-WINDi_r2_v1.2,2013-02-13 11:50:00,
2013-02-13 05:55:00,19.2,18.0,29.86,ESE,103,0.0,0.0,95,0.00,,,0.00,0,HR-IXP-WINDi_r2_v1.2,2013-02-13 11:55:00,
2013-02-13 06:00:00,19.3,18.1,29.86,ESE,103,0.0,0.0,95,0.00,,,0.00,0,HR-IXP-WINDi_r2_v1.2,2013-02-13 12:00:00,
2013-02-13 06:06:00,19.4,18.2,29.86,ESE,103,0.0,0.0,95,0.00,,,0.00,0,HR-IXP-WINDi_r2_v1.2,2013-02-13 12:06:00,
2013-02-13 06:11:00,19.5,18.3,29.86,ESE,103,0.0,0.0,95,0.00,,,0.00,0,HR-IXP-WINDi_r2_v1.2,2013-02-13 12:11:00,
2013-02-13 06:16:00,19.8,18.9,29.86,ESE,103,0.0,0.0,96,0.00,,,0.00,0,HR-IXP-WINDi_r2_v1.2,2013-02-13 12:16:00,
2013-02-13 06:21:00,19.9,19.0,29.86,ESE,103,0.0,0.0,96,0.00,,,0.00,0,HR-IXP-WINDi_r2_v1.2,2013-02-13 12:21:00,
2013-02-13 06:26:00,20.0,19.1,29.86,ESE,103,0.0,1.0,96,0.00,,,0.00,0,HR-IXP-WINDi_r2_v1.2,2013-02-13 12:26:00,
2013-02-13 06:32:00,20.0,18.8,29.86,ESE,103,0.0,1.0,95,0.00,,,0.00,0,HR-IXP-WINDi_r2_v1.2,2013-02-13 12:32:00,
2013-02-13 06:37:00,20.1,18.9,29.86,ESE,103,0.0,1.0,95,0.00,,,0.00,0,HR-IXP-WINDi_r2_v1.2,2013-02-13 12:37:00,
2013-02-13 06:42:00,20.1,18.9,29.86,ESE,103,0.0,1.0,95,0.00,,,0.00,0,HR-IXP-WINDi_r2_v1.2,2013-02-13 12:42:00,
2013-02-13 06:47:00,20.1,18.9,29.86,ESE,103,0.0,0.0,95,0.00,,,0.00,0,HR-IXP-WINDi_r2_v1.2,2013-02-13 12:47:00,
2013-02-13 06:52:00,20.1,18.9,29.86,ESE,103,0.0,0.0,95,0.00,,,0.00,0,HR-IXP-WINDi_r2_v1.2,2013-02-13 12:52:00,
2013-02-13 06:58:00,20.1,18.9,29.86,ESE,103,0.0,0.0,95,0.00,,,0.00,9,HR-IXP-WINDi_r2_v1.2,2013-02-13 12:58:00,
2013-02-13 07:03:00,20.2,19.0,29.86,ESE,103,0.0,1.0,95,0.00,,,0.00,12,HR-IXP-WINDi_r2_v1.2,2013-02-13 13:03:00,
2013-02-13 07:08:00,20.3,19.1,29.86,ESE,103,0.0,1.0,95,0.00,,,0.00,16,HR-IXP-WINDi_r2_v1.2,2013-02-13 13:08:00,
2013-02-13 07:13:00,20.4,19.5,29.86,ESE,103,0.0,0.0,96,0.00,,,0.00,19,HR-IXP-WINDi_r2_v1.2,2013-02-13 13:13:00,
2013-02-13 07:18:00,20.5,19.6,29.86,ESE,103,0.0,2.0,96,0.00,,,0.00,21,HR-IXP-WINDi_r2_v1.2,2013-02-13 13:18:00,
2013-02-13 07:23:00,20.8,19.8,29.86,ESE,103,0.0,2.0,96,0.00,,,0.00,26,HR-IXP-WINDi_r2_v1.2,2013-02-13 13:23:00,
2013-02-13 07:28:00,21.1,20.1,29.85,ESE,115,0.0,2.0,96,0.00,,,0.00,28,HR-IXP-WINDi_r2_v1.2,2013-02-13 13:28:00,
2013-02-13 07:34:00,21.5,20.5,29.86,ESE,115,0.0,2.0,96,0.00,,,0.00,32,HR-IXP-WINDi_r2_v1.2,2013-02-13 13:34:00,
2013-02-13 07:39:00,21.7,20.7,29.86,SE,144,0.0,4.0,96,0.00,,,0.00,33,HR-IXP-WINDi_r2_v1.2,2013-02-13 13:39:00,
2013-02-13 07:44:00,22.0,21.0,29.86,SE,144,0.0,4.0,96,0.00,,,0.00,37,HR-IXP-WINDi_r2_v1.2,2013-02-13 13:44:00,
2013-02-13 07:49:00,22.4,21.4,29.85,SE,143,2.0,4.0,96,0.00,,,0.00,39,HR-IXP-WINDi_r2_v1.2,2013-02-13 13:49:00,
2013-02-13 07:54:00,22.8,21.8,29.85,SE,143,0.0,4.0,96,0.00,,,0.00,42,HR-IXP-WINDi_r2_v1.2,2013-02-13 13:54:00,
2013-02-13 07:59:00,23.3,22.6,29.85,SE,143,2.0,4.0,97,0.00,,,0.00,46,HR-IXP-WINDi_r2_v1.2,2013-02-13 13:59:00,
2013-02-13 08:05:00,23.8,23.1,29.86,SE,143,1.0,4.0,97,0.00,,,0.00,47,HR-IXP-WINDi_r2_v1.2,2013-02-13 14:05:00,
2013-02-13 08:10:00,24.3,23.6,29.85,SSE,154,6.0,7.0,97,0.00,,,0.00,49,HR-IXP-WINDi_r2_v1.2,2013-02-13 14:10:00,
2013-02-13 08:15:00,24.7,24.0,29.85,SSE,151,4.0,7.0,97,0.00,,,0.00,51,HR-IXP-WINDi_r2_v1.2,2013-02-13 14:15:00,
2013-02-13 08:20:00,25.1,24.4,29.86,SSE,155,2.0,7.0,97,0.00,,,0.00,54,HR-IXP-WINDi_r2_v1.2,2013-02-13 14:20:00,
2013-02-13 08:26:00,25.6,24.9,29.86,SSE,148,0.0,7.0,97,0.00,,,0.00,56,HR-IXP-WINDi_r2_v1.2,2013-02-13 14:26:00,
2013-02-13 08:31:00,26.0,25.3,29.86,SSE,152,0.0,7.0,97,0.00,,,0.00,58,HR-IXP-WINDi_r2_v1.2,2013-02-13 14:31:00,
2013-02-13 08:36:00,26.4,25.4,29.86,SSE,152,0.0,9.0,96,0.00,,,0.00,62,HR-IXP-WINDi_r2_v1.2,2013-02-13 14:36:00,
2013-02-13 08:41:00,26.7,25.7,29.86,SSE,154,0.0,9.0,96,0.00,,,0.00,63,HR-IXP-WINDi_r2_v1.2,2013-02-13 14:41:00,
2013-02-13 08:46:00,27.1,26.1,29.86,SSE,155,0.0,8.0,96,0.00,,,0.00,83,HR-IXP-WINDi_r2_v1.2,2013-02-13 14:46:00,
2013-02-13 08:52:00,27.5,26.5,29.86,South,173,0.0,8.0,96,0.00,,,0.00,232,HR-IXP-WINDi_r2_v1.2,2013-02-13 14:52:00,
2013-02-13 08:57:00,27.9,26.9,29.86,SE,140,0.0,8.0,96,0.00,,,0.00,302,HR-IXP-WINDi_r2_v1.2,2013-02-13 14:57:00,
2013-02-13 09:02:00,28.3,27.0,29.86,SSE,163,2.0,7.0,95,0.00,,,0.00,301,HR-IXP-WINDi_r2_v1.2,2013-02-13 15:02:00,
2013-02-13 09:07:00,28.7,27.4,29.86,SSE,164,5.0,6.0,95,0.00,,,0.00,306,HR-IXP-WINDi_r2_v1.2,2013-02-13 15:07:00,
2013-02-13 09:12:00,29.0,27.5,29.86,South,170,4.0,10.0,94,0.00,,,0.00,322,HR-IXP-WINDi_r2_v1.2,2013-02-13 15:12:00,
2013-02-13 09:17:00,29.3,27.5,29.86,South,169,5.0,10.0,93,0.00,,,0.00,334,HR-IXP-WINDi_r2_v1.2,2013-02-13 15:17:00,
2013-02-13 09:22:00,29.6,27.5,29.86,South,169,0.0,9.0,92,0.00,,,0.00,350,HR-IXP-WINDi_r2_v1.2,2013-02-13 15:22:00,
2013-02-13 09:27:00,30.1,28.0,29.86,South,169,2.0,11.0,92,0.00,,,0.00,360,HR-IXP-WINDi_r2_v1.2,2013-02-13 15:27:00,
2013-02-13 09:33:00,30.7,28.9,29.86,SE,130,0.0,11.0,93,0.00,,,0.00,366,HR-IXP-WINDi_r2_v1.2,2013-02-13 15:33:00,
2013-02-13 09:38:00,31.2,28.9,29.86,SE,142,6.0,8.0,91,0.00,,,0.00,371,HR-IXP-WINDi_r2_v1.2,2013-02-13 15:38:00,
2013-02-13 09:43:00,31.8,29.4,29.86,SE,146,5.0,11.0,91,0.00,,,0.00,403,HR-IXP-WINDi_r2_v1.2,2013-02-13 15:43:00,
2013-02-13 09:48:00,32.4,29.8,29.86,SSE,163,4.0,11.0,90,0.00,,,0.00,420,HR-IXP-WINDi_r2_v1.2,2013-02-13 15:48:00,
2013-02-13 09:53:00,32.9,29.7,29.85,South,186,3.0,10.0,88,0.00,,,0.00,432,HR-IXP-WINDi_r2_v1.2,2013-02-13 15:53:00,
2013-02-13 09:59:00,33.4,30.5,29.85,SSE,147,6.0,10.0,89,0.00,,,0.00,436,HR-IXP-WINDi_r2_v1.2,2013-02-13 15:59:00,
2013-02-13 10:04:00,34.1,30.9,29.85,SE,132,8.0,12.0,88,0.00,,,0.00,455,HR-IXP-WINDi_r2_v1.2,2013-02-13 16:04:00,
2013-02-13 10:09:00,34.8,31.3,29.85,SSE,152,1.0,12.0,87,0.00,,,0.00,425,HR-IXP-WINDi_r2_v1.2,2013-02-13 16:09:00,
2013-02-13 10:14:00,35.3,31.5,29.85,South,172,4.0,11.0,86,0.00,,,0.00,475,HR-IXP-WINDi_r2_v1.2,2013-02-13 16:14:00,
2013-02-13 10:19:00,35.8,31.1,29.85,SSE,167,1.0,11.0,83,0.00,,,0.00,482,HR-IXP-WINDi_r2_v1.2,2013-02-13 16:19:00,
2013-02-13 10:25:00,36.1,31.4,29.85,South,173,2.0,11.0,83,0.00,,,0.00,496,HR-IXP-WINDi_r2_v1.2,2013-02-13 16:25:00,
2013-02-13 10:30:00,36.4,31.7,29.85,SSE,158,6.0,9.0,83,0.00,,,0.00,475,HR-IXP-WINDi_r2_v1.2,2013-02-13 16:30:00,
2013-02-13 10:35:00,36.7,31.1,29.85,SE,144,6.0,8.0,80,0.00,,,0.00,503,HR-IXP-WINDi_r2_v1.2,2013-02-13 16:35:00,
2013-02-13 10:40:00,37.2,32.2,29.85,SE,144,2.0,9.0,82,0.00,,,0.00,513,HR-IXP-WINDi_r2_v1.2,2013-02-13 16:40:00,
2013-02-13 10:45:00,37.9,32.3,29.84,SSE,162,6.0,14.0,80,0.00,,,0.00,527,HR-IXP-WINDi_r2_v1.2,2013-02-13 16:45:00,
2013-02-13 10:50:00,38.4,32.4,29.84,South,175,2.0,14.0,79,0.00,,,0.00,436,HR-IXP-WINDi_r2_v1.2,2013-02-13 16:50:00,
2013-02-13 10:56:00,38.3,32.0,29.84,South,170,1.0,12.0,78,0.00,,,0.00,485,HR-IXP-WINDi_r2_v1.2,2013-02-13 16:56:00,
2013-02-13 11:01:00,38.4,32.1,29.84,SSW,207,3.0,12.0,78,0.00,,,0.00,482,HR-IXP-WINDi_r2_v1.2,2013-02-13 17:01:00,
2013-02-13 11:06:00,38.8,32.5,29.84,SSW,202,1.0,10.0,78,0.00,,,0.00,503,HR-IXP-WINDi_r2_v1.2,2013-02-13 17:06:00,
2013-02-13 11:11:00,39.0,32.4,29.84,SSE,148,7.0,10.0,77,0.00,,,0.00,508,HR-IXP-WINDi_r2_v1.2,2013-02-13 17:11:00,
2013-02-13 11:16:00,39.4,32.8,29.84,SSW,201,5.0,11.0,77,0.00,,,0.00,559,HR-IXP-WINDi_r2_v1.2,2013-02-13 17:16:00,
2013-02-13 11:22:00,39.6,32.6,29.83,SSW,199,1.0,11.0,76,0.00,,,0.00,555,HR-IXP-WINDi_r2_v1.2,2013-02-13 17:22:00,
2013-02-13 11:27:00,40.2,33.5,29.83,SE,136,6.0,11.0,77,0.00,,,0.00,534,HR-IXP-WINDi_r2_v1.2,2013-02-13 17:27:00,
2013-02-13 11:32:00,40.8,33.1,29.83,SSW,194,1.0,10.0,74,0.00,,,0.00,396,HR-IXP-WINDi_r2_v1.2,2013-02-13 17:32:00,
2013-02-13 11:38:00,41.0,32.6,29.83,SSW,200,4.0,11.0,72,0.00,,,0.00,557,HR-IXP-WINDi_r2_v1.2,2013-02-13 17:38:00,
2013-02-13 11:43:00,40.7,32.7,29.82,SW,232,0.0,11.0,73,0.00,,,0.00,529,HR-IXP-WINDi_r2_v1.2,2013-02-13 17:43:00,
2013-02-13 11:48:00,41.0,33.3,29.82,SE,142,0.0,7.0,74,0.00,,,0.00,555,HR-IXP-WINDi_r2_v1.2,2013-02-13 17:48:00,
2013-02-13 11:53:00,41.6,33.6,29.81,South,191,6.0,7.0,73,0.00,,,0.00,573,HR-IXP-WINDi_r2_v1.2,2013-02-13 17:53:00,
2013-02-13 11:58:00,42.0,34.3,29.81,South,174,1.0,9.0,74,0.00,,,0.00,568,HR-IXP-WINDi_r2_v1.2,2013-02-13 17:58:00,
2013-02-13 12:03:00,42.3,33.2,29.80,SW,219,4.0,10.0,70,0.00,,,0.00,568,HR-IXP-WINDi_r2_v1.2,2013-02-13 18:03:00,
2013-02-13 12:08:00,42.4,33.3,29.80,South,184,6.0,11.0,70,0.00,,,0.00,566,HR-IXP-WINDi_r2_v1.2,2013-02-13 18:08:00,
2013-02-13 12:14:00,42.4,34.0,29.80,SSE,166,2.0,11.0,72,0.00,,,0.00,548,HR-IXP-WINDi_r2_v1.2,2013-02-13 18:14:00,
2013-02-13 12:19:00,42.3,33.9,29.80,South,170,4.0,9.0,72,0.00,,,0.00,555,HR-IXP-WINDi_r2_v1.2,2013-02-13 18:19:00,
2013-02-13 12:24:00,42.5,34.1,29.79,South,185,1.0,9.0,72,0.00,,,0.00,533,HR-IXP-WINDi_r2_v1.2,2013-02-13 18:24:00,
2013-02-13 12:29:00,43.2,34.7,29.79,SSE,163,1.0,8.0,72,0.00,,,0.00,540,HR-IXP-WINDi_r2_v1.2,2013-02-13 18:29:00,
2013-02-13 12:34:00,43.2,34.4,29.79,SSE,160,6.0,8.0,71,0.00,,,0.00,425,HR-IXP-WINDi_r2_v1.2,2013-02-13 18:34:00,
2013-02-13 12:39:00,43.4,34.6,29.79,SSE,150,8.0,8.0,71,0.00,,,0.00,294,HR-IXP-WINDi_r2_v1.2,2013-02-13 18:39:00,
2013-02-13 12:44:00,43.6,34.1,29.79,SSE,163,0.0,8.0,69,0.00,,,0.00,413,HR-IXP-WINDi_r2_v1.2,2013-02-13 18:44:00,
2013-02-13 12:50:00,43.6,34.1,29.79,South,182,1.0,9.0,69,0.00,,,0.00,512,HR-IXP-WINDi_r2_v1.2,2013-02-13 18:50:00,
2013-02-13 12:55:00,43.6,34.1,29.78,SW,221,4.0,9.0,69,0.00,,,0.00,499,HR-IXP-WINDi_r2_v1.2,2013-02-13 18:55:00,
2013-02-13 13:00:00,43.6,34.1,29.78,SSW,200,3.0,8.0,69,0.00,,,0.00,348,HR-IXP-WINDi_r2_v1.2,2013-02-13 19:00:00,
2013-02-13 13:05:00,43.5,34.0,29.78,South,184,5.0,8.0,69,0.00,,,0.00,346,HR-IXP-WINDi_r2_v1.2,2013-02-13 19:05:00,
2013-02-13 13:11:00,43.7,34.5,29.78,South,190,3.0,8.0,70,0.00,,,0.00,385,HR-IXP-WINDi_r2_v1.2,2013-02-13 19:11:00,
2013-02-13 13:16:00,43.8,34.6,29.78,SSW,211,3.0,8.0,70,0.00,,,0.00,446,HR-IXP-WINDi_r2_v1.2,2013-02-13 19:16:00,
2013-02-13 13:21:00,44.0,34.1,29.77,SW,225,5.0,10.0,68,0.00,,,0.00,469,HR-IXP-WINDi_r2_v1.2,2013-02-13 19:21:00,
2013-02-13 13:26:00,44.2,34.3,29.77,SSW,205,0.0,10.0,68,0.00,,,0.00,438,HR-IXP-WINDi_r2_v1.2,2013-02-13 19:26:00,
2013-02-13 13:31:00,44.7,34.0,29.77,SSW,206,4.0,9.0,66,0.00,,,0.00,439,HR-IXP-WINDi_r2_v1.2,2013-02-13 19:31:00,
2013-02-13 13:36:00,45.2,34.5,29.77,SSW,198,4.0,9.0,66,0.00,,,0.00,404,HR-IXP-WINDi_r2_v1.2,2013-02-13 19:36:00,
2013-02-13 13:42:00,45.4,33.9,29.77,South,190,3.0,10.0,64,0.00,,,0.00,471,HR-IXP-WINDi_r2_v1.2,2013-02-13 19:42:00,
2013-02-13 13:47:00,45.3,33.8,29.76,SSW,196,4.0,10.0,64,0.00,,,0.00,366,HR-IXP-WINDi_r2_v1.2,2013-02-13 19:47:00,
2013-02-13 13:52:00,45.4,33.9,29.76,South,186,3.0,10.0,64,0.00,,,0.00,420,HR-IXP-WINDi_r2_v1.2,2013-02-13 19:52:00,
2013-02-13 13:57:00,45.4,33.5,29.76,WSW,244,3.0,8.0,63,0.00,,,0.00,281,HR-IXP-WINDi_r2_v1.2,2013-02-13 19:57:00,
2013-02-13 14:02:00,45.8,34.7,29.76,SSW,192,1.0,7.0,65,0.00,,,0.00,359,HR-IXP-WINDi_r2_v1.2,2013-02-13 20:02:00,
2013-02-13 14:07:00,46.0,34.1,29.75,SSE,164,4.0,9.0,63,0.00,,,0.00,336,HR-IXP-WINDi_r2_v1.2,2013-02-13 20:07:00,
2013-02-13 14:13:00,46.1,33.8,29.76,SW,221,1.0,9.0,62,0.00,,,0.00,415,HR-IXP-WINDi_r2_v1.2,2013-02-13 20:13:00,
2013-02-13 14:18:00,46.4,33.6,29.76,WSW,242,5.0,8.0,61,0.00,,,0.00,373,HR-IXP-WINDi_r2_v1.2,2013-02-13 20:18:00,
2013-02-13 14:23:00,46.6,33.8,29.75,WSW,244,3.0,9.0,61,0.00,,,0.00,417,HR-IXP-WINDi_r2_v1.2,2013-02-13 20:23:00,
2013-02-13 14:28:00,46.7,33.5,29.76,SSW,213,6.0,11.0,60,0.00,,,0.00,401,HR-IXP-WINDi_r2_v1.2,2013-02-13 20:28:00,
2013-02-13 14:33:00,46.6,33.4,29.76,SW,217,6.0,11.0,60,0.00,,,0.00,313,HR-IXP-WINDi_r2_v1.2,2013-02-13 20:33:00,
2013-02-13 14:39:00,46.5,33.7,29.76,SSW,203,2.0,7.0,61,0.00,,,0.00,343,HR-IXP-WINDi_r2_v1.2,2013-02-13 20:39:00,
2013-02-13 14:44:00,46.2,33.5,29.76,SW,219,1.0,10.0,61,0.00,,,0.00,169,HR-IXP-WINDi_r2_v1.2,2013-02-13 20:44:00,
2013-02-13 14:49:00,46.3,33.1,29.76,SSW,203,1.0,10.0,60,0.00,,,0.00,316,HR-IXP-WINDi_r2_v1.2,2013-02-13 20:49:00,
2013-02-13 14:54:00,46.1,33.4,29.76,South,190,5.0,10.0,61,0.00,,,0.00,329,HR-IXP-WINDi_r2_v1.2,2013-02-13 20:54:00,
2013-02-13 14:59:00,46.3,33.6,29.76,SW,220,5.0,9.0,61,0.00,,,0.00,255,HR-IXP-WINDi_r2_v1.2,2013-02-13 20:59:00,
2013-02-13 15:04:00,46.2,33.5,29.76,SW,225,4.0,10.0,61,0.00,,,0.00,308,HR-IXP-WINDi_r2_v1.2,2013-02-13 21:04:00,
2013-02-13 15:09:00,46.3,33.1,29.76,SSW,200,5.0,10.0,60,0.00,,,0.00,137,HR-IXP-WINDi_r2_v1.2,2013-02-13 21:09:00,
2013-02-13 15:15:00,46.1,33.4,29.76,SSW,196,1.0,7.0,61,0.00,,,0.00,90,HR-IXP-WINDi_r2_v1.2,2013-02-13 21:15:00,
2013-02-13 15:20:00,45.9,33.2,29.75,SSW,192,4.0,7.0,61,0.00,,,0.00,144,HR-IXP-WINDi_r2_v1.2,2013-02-13 21:20:00,
2013-02-13 15:25:00,45.6,32.9,29.76,SW,227,4.0,11.0,61,0.00,,,0.00,135,HR-IXP-WINDi_r2_v1.2,2013-02-13 21:25:00,
2013-02-13 15:30:00,45.4,33.5,29.75,SSW,204,7.0,11.0,63,0.00,,,0.00,83,HR-IXP-WINDi_r2_v1.2,2013-02-13 21:30:00,
2013-02-13 15:35:00,45.3,33.8,29.75,SSW,202,8.0,8.0,64,0.00,,,0.00,204,HR-IXP-WINDi_r2_v1.2,2013-02-13 21:35:00,
2013-02-13 15:41:00,45.2,33.3,29.75,SSW,209,1.0,10.0,63,0.00,,,0.00,183,HR-IXP-WINDi_r2_v1.2,2013-02-13 21:41:00,
2013-02-13 15:46:00,45.2,33.3,29.75,SSW,198,4.0,10.0,63,0.00,,,0.00,146,HR-IXP-WINDi_r2_v1.2,2013-02-13 21:46:00,
2013-02-13 15:51:00,45.2,34.1,29.75,South,186,3.0,7.0,65,0.00,,,0.00,123,HR-IXP-WINDi_r2_v1.2,2013-02-13 21:51:00,
2013-02-13 15:56:00,45.1,34.0,29.75,SW,217,4.0,6.0,65,0.00,,,0.00,107,HR-IXP-WINDi_r2_v1.2,2013-02-13 21:56:00,
2013-02-13 16:01:00,44.6,33.9,29.75,SSW,210,1.0,8.0,66,0.00,,,0.00,98,HR-IXP-WINDi_r2_v1.2,2013-02-13 22:01:00,
2013-02-13 16:06:00,44.3,34.0,29.76,SSW,206,2.0,8.0,67,0.00,,,0.00,67,HR-IXP-WINDi_r2_v1.2,2013-02-13 22:06:00,
2013-02-13 16:12:00,44.0,34.1,29.76,SW,219,5.0,8.0,68,0.00,,,0.00,72,HR-IXP-WINDi_r2_v1.2,2013-02-13 22:12:00,
2013-02-13 16:17:00,43.9,34.0,29.76,South,189,4.0,8.0,68,0.00,,,0.00,60,HR-IXP-WINDi_r2_v1.2,2013-02-13 22:17:00,
2013-02-13 16:22:00,43.7,34.2,29.76,SSW,211,5.0,8.0,69,0.00,,,0.00,49,HR-IXP-WINDi_r2_v1.2,2013-02-13 22:22:00,
2013-02-13 16:27:00,43.6,34.1,29.76,SSW,207,4.0,8.0,69,0.00,,,0.00,51,HR-IXP-WINDi_r2_v1.2,2013-02-13 22:27:00,
2013-02-13 16:32:00,43.3,34.1,29.76,SSW,197,1.0,8.0,70,0.00,,,0.00,40,HR-IXP-WINDi_r2_v1.2,2013-02-13 22:32:00,
2013-02-13 16:37:00,43.0,34.2,29.76,SSW,209,1.0,7.0,71,0.00,,,0.00,37,HR-IXP-WINDi_r2_v1.2,2013-02-13 22:37:00,
2013-02-13 16:43:00,42.8,34.4,29.76,SSW,199,1.0,7.0,72,0.00,,,0.00,32,HR-IXP-WINDi_r2_v1.2,2013-02-13 22:43:00,
2013-02-13 16:48:00,42.5,34.1,29.76,SSW,200,1.0,7.0,72,0.00,,,0.00,28,HR-IXP-WINDi_r2_v1.2,2013-02-13 22:48:00,
2013-02-13 16:53:00,42.3,34.2,29.76,SSW,211,3.0,5.0,73,0.00,,,0.00,21,HR-IXP-WINDi_r2_v1.2,2013-02-13 22:53:00,
2013-02-13 16:58:00,42.0,34.3,29.77,SSW,202,3.0,5.0,74,0.00,,,0.00,16,HR-IXP-WINDi_r2_v1.2,2013-02-13 22:58:00,
2013-02-13 17:03:00,41.8,34.1,29.77,SSW,205,2.0,5.0,74,0.00,,,0.00,12,HR-IXP-WINDi_r2_v1.2,2013-02-13 23:03:00,
2013-02-13 17:09:00,41.5,34.1,29.77,SSW,209,0.0,4.0,75,0.00,,,0.00,9,HR-IXP-WINDi_r2_v1.2,2013-02-13 23:09:00,
2013-02-13 17:14:00,41.2,33.8,29.77,WSW,244,0.0,4.0,75,0.00,,,0.00,7,HR-IXP-WINDi_r2_v1.2,2013-02-13 23:14:00,
2013-02-13 17:19:00,40.9,33.6,29.77,WSW,243,0.0,3.0,75,0.00,,,0.00,0,HR-IXP-WINDi_r2_v1.2,2013-02-13 23:19:00,
2013-02-13 17:24:00,40.6,33.6,29.77,WSW,243,1.0,3.0,76,0.00,,,0.00,0,HR-IXP-WINDi_r2_v1.2,2013-02-13 23:24:00,
2013-02-13 17:30:00,40.3,33.3,29.77,WSW,243,0.0,3.0,76,0.00,,,0.00,0,HR-IXP-WINDi_r2_v1.2,2013-02-13 23:30:00,
2013-02-13 17:35:00,40.0,33.3,29.78,SW,236,1.0,3.0,77,0.00,,,0.00,0,HR-IXP-WINDi_r2_v1.2,2013-02-13 23:35:00,
2013-02-13 17:40:00,39.7,33.1,29.77,SW,231,0.0,4.0,77,0.00,,,0.00,0,HR-IXP-WINDi_r2_v1.2,2013-02-13 23:40:00,
2013-02-13 17:45:00,39.5,32.9,29.78,SW,231,0.0,4.0,77,0.00,,,0.00,0,HR-IXP-WINDi_r2_v1.2,2013-02-13 23:45:00,
2013-02-13 17:51:00,39.2,32.9,29.78,SW,231,0.0,0.0,78,0.00,,,0.00,0,HR-IXP-WINDi_r2_v1.2,2013-02-13 23:51:00,
2013-02-13 17:56:00,38.9,32.6,29.78,SW,231,0.0,0.0,78,0.00,,,0.00,0,HR-IXP-WINDi_r2_v1.2,2013-02-13 23:56:00,
2013-02-13 18:01:00,38.6,32.6,29.78,SW,231,0.0,0.0,79,0.00,,,0.00,0,HR-IXP-WINDi_r2_v1.2,2013-02-14 00:01:00,
2013-02-13 18:07:00,38.3,32.3,29.78,SW,231,0.0,1.0,79,0.00,,,0.00,0,HR-IXP-WINDi_r2_v1.2,2013-02-14 00:07:00,
2013-02-13 18:12:00,38.1,32.4,29.78,SW,231,0.0,1.0,80,0.00,,,0.00,0,HR-IXP-WINDi_r2_v1.2,2013-02-14 00:12:00,
2013-02-13 18:17:00,37.8,32.2,29.78,SW,231,0.0,1.0,80,0.00,,,0.00,0,HR-IXP-WINDi_r2_v1.2,2013-02-14 00:17:00,
2013-02-13 18:22:00,37.6,32.0,29.78,SW,231,0.0,0.0,80,0.00,,,0.00,0,HR-IXP-WINDi_r2_v1.2,2013-02-14 00:22:00,
2013-02-13 18:27:00,37.3,31.7,29.78,SW,231,0.0,0.0,80,0.00,,,0.00,0,HR-IXP-WINDi_r2_v1.2,2013-02-14 00:27:00,
2013-02-13 18:33:00,37.0,31.7,29.78,SW,231,0.0,0.0,81,0.00,,,0.00,0,HR-IXP-WINDi_r2_v1.2,2013-02-14 00:33:00,
2013-02-13 18:38:00,36.8,31.5,29.79,SW,231,0.0,1.0,81,0.00,,,0.00,0,HR-IXP-WINDi_r2_v1.2,2013-02-14 00:38:00,
2013-02-13 18:43:00,36.6,31.6,29.79,SW,231,0.0,1.0,82,0.00,,,0.00,0,HR-IXP-WINDi_r2_v1.2,2013-02-14 00:43:00,
2013-02-13 18:48:00,36.5,31.5,29.79,SW,231,0.0,1.0,82,0.00,,,0.00,0,HR-IXP-WINDi_r2_v1.2,2013-02-14 00:48:00,
2013-02-13 18:53:00,36.4,31.4,29.79,SW,231,0.0,1.0,82,0.00,,,0.00,0,HR-IXP-WINDi_r2_v1.2,2013-02-14 00:53:00,
2013-02-13 18:58:00,36.4,31.4,29.79,SW,231,0.0,1.0,82,0.00,,,0.00,0,HR-IXP-WINDi_r2_v1.2,2013-02-14 00:58:00,
2013-02-13 19:03:00,36.3,31.3,29.79,SW,231,2.0,2.0,82,0.00,,,0.00,0,HR-IXP-WINDi_r2_v1.2,2013-02-14 01:03:00,
2013-02-13 19:09:00,36.3,31.3,29.79,SW,231,0.0,2.0,82,0.00,,,0.00,0,HR-IXP-WINDi_r2_v1.2,2013-02-14 01:09:00,
2013-02-13 19:14:00,36.2,31.2,29.79,SW,231,0.0,2.0,82,0.00,,,0.00,0,HR-IXP-WINDi_r2_v1.2,2013-02-14 01:14:00,
2013-02-13 19:19:00,36.0,31.0,29.79,SW,231,0.0,0.0,82,0.00,,,0.00,0,HR-IXP-WINDi_r2_v1.2,2013-02-14 01:19:00,
2013-02-13 19:24:00,35.8,31.1,29.79,SW,231,0.0,2.0,83,0.00,,,0.00,0,HR-IXP-WINDi_r2_v1.2,2013-02-14 01:24:00,
2013-02-13 19:29:00,35.7,31.0,29.79,SW,231,0.0,2.0,83,0.00,,,0.00,0,HR-IXP-WINDi_r2_v1.2,2013-02-14 01:29:00,
2013-02-13 19:35:00,35.6,30.9,29.79,SW,231,0.0,2.0,83,0.00,,,0.00,0,HR-IXP-WINDi_r2_v1.2,2013-02-14 01:35:00,
2013-02-13 19:40:00,35.5,30.8,29.79,SW,231,0.0,2.0,83,0.00,,,0.00,0,HR-IXP-WINDi_r2_v1.2,2013-02-14 01:40:00,
2013-02-13 19:45:00,35.4,30.7,29.79,SW,231,0.0,0.0,83,0.00,,,0.00,0,HR-IXP-WINDi_r2_v1.2,2013-02-14 01:45:00,
2013-02-13 19:50:00,35.2,30.5,29.79,SW,231,0.0,0.0,83,0.00,,,0.00,0,HR-IXP-WINDi_r2_v1.2,2013-02-14 01:50:00,
2013-02-13 19:55:00,34.9,30.2,29.79,SW,231,0.0,0.0,83,0.00,,,0.00,0,HR-IXP-WINDi_r2_v1.2,2013-02-14 01:55:00,
2013-02-13 20:00:00,34.7,30.0,29.79,SW,231,0.0,0.0,83,0.00,,,0.00,0,HR-IXP-WINDi_r2_v1.2,2013-02-14 02:00:00,
2013-02-13 20:06:00,34.4,30.0,29.79,SW,231,0.0,0.0,84,0.00,,,0.00,0,HR-IXP-WINDi_r2_v1.2,2013-02-14 02:06:00,
2013-02-13 20:11:00,34.2,30.1,29.79,SW,231,0.0,0.0,85,0.00,,,0.00,0,HR-IXP-WINDi_r2_v1.2,2013-02-14 02:11:00,
2013-02-13 20:16:00,34.0,30.2,29.80,SW,231,0.0,0.0,86,0.00,,,0.00,0,HR-IXP-WINDi_r2_v1.2,2013-02-14 02:16:00,
2013-02-13 20:21:00,33.9,30.1,29.80,SW,231,0.0,0.0,86,0.00,,,0.00,0,HR-IXP-WINDi_r2_v1.2,2013-02-14 02:21:00,
2013-02-13 20:26:00,33.7,29.9,29.80,SW,231,0.0,0.0,86,0.00,,,0.00,0,HR-IXP-WINDi_r2_v1.2,2013-02-14 02:26:00,
2013-02-13 20:32:00,33.5,29.7,29.80,SW,231,0.0,0.0,86,0.00,,,0.00,0,HR-IXP-WINDi_r2_v1.2,2013-02-14 02:32:00,
2013-02-13 20:37:00,33.4,29.9,29.80,SW,231,0.0,0.0,87,0.00,,,0.00,0,HR-IXP-WINDi_r2_v1.2,2013-02-14 02:37:00,
2013-02-13 20:42:00,33.4,29.9,29.80,SW,231,0.0,0.0,87,0.00,,,0.00,0,HR-IXP-WINDi_r2_v1.2,2013-02-14 02:42:00,
2013-02-13 20:47:00,33.3,29.8,29.80,SW,231,0.0,0.0,87,0.00,,,0.00,0,HR-IXP-WINDi_r2_v1.2,2013-02-14 02:47:00,
2013-02-13 20:52:00,33.1,29.6,29.80,SW,231,0.0,0.0,87,0.00,,,0.00,0,HR-IXP-WINDi_r2_v1.2,2013-02-14 02:52:00,
2013-02-13 20:57:00,32.9,29.2,29.80,SW,231,0.0,0.0,86,0.00,,,0.00,0,HR-IXP-WINDi_r2_v1.2,2013-02-14 02:57:00,
2013-02-13 21:02:00,32.6,28.9,29.80,SW,231,0.0,0.0,86,0.00,,,0.00,0,HR-IXP-WINDi_r2_v1.2,2013-02-14 03:02:00,
2013-02-13 21:08:00,32.3,28.6,29.80,SW,231,0.0,0.0,86,0.00,,,0.00,0,HR-IXP-WINDi_r2_v1.2,2013-02-14 03:08:00,
2013-02-13 21:13:00,32.0,28.5,29.80,SW,231,0.0,0.0,87,0.00,,,0.00,0,HR-IXP-WINDi_r2_v1.2,2013-02-14 03:13:00,
2013-02-13 21:18:00,31.7,28.3,29.80,SW,231,0.0,0.0,87,0.00,,,0.00,0,HR-IXP-WINDi_r2_v1.2,2013-02-14 03:18:00,
2013-02-13 21:23:00,31.4,28.0,29.80,SW,231,0.0,0.0,87,0.00,,,0.00,0,HR-IXP-WINDi_r2_v1.2,2013-02-14 03:23:00,
2013-02-13 21:29:00,31.1,27.7,29.80,SW,231,0.0,0.0,87,0.00,,,0.00,0,HR-IXP-WINDi_r2_v1.2,2013-02-14 03:29:00,
2013-02-13 21:34:00,30.7,27.6,29.80,SW,231,0.0,0.0,88,0.00,,,0.00,0,HR-IXP-WINDi_r2_v1.2,2013-02-14 03:34:00,
2013-02-13 21:39:00,30.4,27.3,29.80,SW,231,0.0,0.0,88,0.00,,,0.00,0,HR-IXP-WINDi_r2_v1.2,2013-02-14 03:39:00,
2013-02-13 21:44:00,30.2,27.3,29.80,SW,231,0.0,0.0,89,0.00,,,0.00,0,HR-IXP-WINDi_r2_v1.2,2013-02-14 03:44:00,
2013-02-13 21:49:00,29.9,27.0,29.80,SW,231,0.0,0.0,89,0.00,,,0.00,0,HR-IXP-WINDi_r2_v1.2,2013-02-14 03:49:00,
2013-02-13 21:54:00,29.8,26.9,29.80,SW,231,0.0,0.0,89,0.00,,,0.00,0,HR-IXP-WINDi_r2_v1.2,2013-02-14 03:54:00,
2013-02-13 21:59:00,29.6,27.0,29.80,SW,231,0.0,0.0,90,0.00,,,0.00,0,HR-IXP-WINDi_r2_v1.2,2013-02-14 03:59:00,
2013-02-13 22:05:00,29.3,26.4,29.80,SW,231,0.0,0.0,89,0.00,,,0.00,0,HR-IXP-WINDi_r2_v1.2,2013-02-14 04:05:00,
2013-02-13 22:10:00,29.1,26.5,29.79,SW,231,0.0,0.0,90,0.00,,,0.00,0,HR-IXP-WINDi_r2_v1.2,2013-02-14 04:10:00,
2013-02-13 22:15:00,28.9,26.6,29.80,SW,231,0.0,0.0,91,0.00,,,0.00,0,HR-IXP-WINDi_r2_v1.2,2013-02-14 04:15:00,
2013-02-13 22:21:00,28.8,26.5,29.80,SW,231,0.0,0.0,91,0.00,,,0.00,0,HR-IXP-WINDi_r2_v1.2,2013-02-14 04:21:00,
2013-02-13 22:26:00,28.8,26.8,29.79,SW,231,0.0,0.0,92,0.00,,,0.00,0,HR-IXP-WINDi_r2_v1.2,2013-02-14 04:26:00,
2013-02-13 22:31:00,28.8,26.8,29.80,SW,231,0.0,0.0,92,0.00,,,0.00,0,HR-IXP-WINDi_r2_v1.2,2013-02-14 04:31:00,
2013-02-13 22:36:00,28.9,27.1,29.79,SW,231,0.0,0.0,93,0.00,,,0.00,0,HR-IXP-WINDi_r2_v1.2,2013-02-14 04:36:00,
2013-02-13 22:42:00,29.0,27.2,29.80,SW,231,0.0,0.0,93,0.00,,,0.00,0,HR-IXP-WINDi_r2_v1.2,2013-02-14 04:42:00,
2013-02-13 22:47:00,29.2,27.4,29.79,SW,231,0.0,1.0,93,0.00,,,0.00,0,HR-IXP-WINDi_r2_v1.2,2013-02-14 04:47:00,
2013-02-13 22:52:00,29.4,27.9,29.79,SW,231,0.0,1.0,94,0.00,,,0.00,0,HR-IXP-WINDi_r2_v1.2,2013-02-14 04:52:00,
2013-02-13 22:58:00,29.7,28.2,29.80,SW,231,0.0,2.0,94,0.00,,,0.00,0,HR-IXP-WINDi_r2_v1.2,2013-02-14 04:58:00,
2013-02-13 23:00:00,29.8,28.3,29.80,SW,231,1.0,2.0,94,0.00,,,0.00,0,HR-IXP-WINDi_r2_v1.2,2013-02-14 05:00:00,
2013-02-13 23:05:00,30.0,28.5,29.79,SW,231,0.0,2.0,94,0.00,,,0.00,0,HR-IXP-WINDi_r2_v1.2,2013-02-14 05:05:00,
2013-02-13 23:10:00,30.3,29.0,29.79,SW,231,0.0,2.0,95,0.00,,,0.00,0,HR-IXP-WINDi_r2_v1.2,2013-02-14 05:10:00,
2013-02-13 23:15:00,30.8,29.5,29.79,SW,231,0.0,0.0,95,0.00,,,0.00,0,HR-IXP-WINDi_r2_v1.2,2013-02-14 05:15:00,
2013-02-13 23:20:00,31.4,30.4,29.79,SW,231,0.0,0.0,96,0.00,,,0.00,0,HR-IXP-WINDi_r2_v1.2,2013-02-14 05:20:00,
2013-02-13 23:25:00,32.0,30.7,29.79,SW,231,0.0,1.0,95,0.00,,,0.00,0,HR-IXP-WINDi_r2_v1.2,2013-02-14 05:25:00,
2013-02-13 23:30:00,32.4,31.1,29.79,SW,231,0.0,1.0,95,0.00,,,0.00,0,HR-IXP-WINDi_r2_v1.2,2013-02-14 05:30:00,
2013-02-13 23:36:00,32.7,31.1,29.79,SSW,204,0.0,2.0,94,0.00,,,0.00,0,HR-IXP-WINDi_r2_v1.2,2013-02-14 05:36:00,
2013-02-13 23:41:00,32.9,31.1,29.79,SSW,204,0.0,2.0,93,0.00,,,0.00,0,HR-IXP-WINDi_r2_v1.2,2013-02-14 05:41:00,
2013-02-13 23:46:00,33.0,31.2,29.79,SSW,204,0.0,0.0,93,0.00,,,0.00,0,HR-IXP-WINDi_r2_v1.2,2013-02-14 05:46:00,
2013-02-13 23:51:00,33.1,31.3,29.79,SSW,204,0.0,1.0,93,0.00,,,0.00,0,HR-IXP-WINDi_r2_v1.2,2013-02-14 05:51:00,
2013-02-13 23:56:00,33.2,31.4,29.79,SSW,204,0.0,1.0,93,0.00,,,0.00,0,HR-IXP-WINDi_r2_v1.2,2013-02-14 05:56:00,